createdAt,value
2023-04-20T00:01:55.784Z,1.65
2023-04-20T00:04:00.039Z,2.28
2023-04-20T00:06:06.268Z,2.15
2023-04-20T00:08:11.097Z,3.17
2023-04-20T00:10:16.105Z,1.92
2023-04-20T00:14:24.993Z,2.28
2023-04-20T00:16:29.798Z,1.85
2023-04-20T00:18:34.185Z,1.70
2023-04-20T00:20:38.832Z,2.65
2023-04-20T00:22:46.512Z,1.80
2023-04-20T00:24:50.845Z,2.20
2023-04-20T00:26:55.780Z,2.00
2023-04-20T00:29:00.151Z,2.03
2023-04-20T00:31:05.165Z,2.15
2023-04-20T00:33:10.733Z,2.55
2023-04-20T00:35:17.044Z,2.20
2023-04-20T00:37:23.170Z,2.25
2023-04-20T00:39:29.369Z,2.10
2023-04-20T00:41:35.391Z,2.03
2023-04-20T00:43:39.643Z,2.42
2023-04-20T00:45:45.237Z,3.05
2023-04-20T00:47:49.581Z,2.25
2023-04-20T00:49:54.571Z,2.45
2023-04-20T00:54:05.388Z,2.25
2023-04-20T00:56:12.915Z,2.65
2023-04-20T00:58:18.217Z,2.30
2023-04-20T01:00:22.706Z,2.67
2023-04-20T01:02:28.517Z,2.60
2023-04-20T01:04:33.271Z,2.47
2023-04-20T01:06:37.534Z,2.53
2023-04-20T01:08:49.805Z,2.22
2023-04-20T01:10:54.367Z,2.67
2023-04-20T01:13:00.453Z,3.13
2023-04-20T01:15:07.461Z,2.05
2023-04-20T01:17:13.882Z,2.20
2023-04-20T01:19:23.241Z,1.80
2023-04-20T01:21:27.477Z,2.72
2023-04-20T01:23:36.680Z,1.63
2023-04-20T01:25:42.044Z,2.42
2023-04-20T01:27:46.600Z,2.17
2023-04-20T01:29:51.121Z,2.45
2023-04-20T01:31:55.426Z,2.70
2023-04-20T01:34:00.268Z,1.80
2023-04-20T01:36:04.992Z,2.40
2023-04-20T01:38:09.518Z,2.00
2023-04-20T01:40:16.438Z,1.75
2023-04-20T01:42:21.260Z,1.83
2023-04-20T01:44:26.059Z,2.50
2023-04-20T01:46:30.523Z,1.67
2023-04-20T01:48:34.529Z,2.20
2023-04-20T01:50:38.232Z,1.75
2023-04-20T01:52:41.813Z,2.30
2023-04-20T01:54:47.259Z,2.33
2023-04-20T01:56:52.419Z,2.33
2023-04-20T02:00:59.828Z,1.95
2023-04-20T02:03:03.817Z,1.73
2023-04-20T02:05:08.103Z,2.55
2023-04-20T02:07:11.780Z,2.10
2023-04-20T02:09:16.051Z,1.25
2023-04-20T02:11:19.926Z,2.95
2023-04-20T02:13:25.080Z,2.33
2023-04-20T02:15:28.681Z,2.17
2023-04-20T02:17:32.928Z,2.10
2023-04-20T02:19:36.543Z,1.80
2023-04-20T02:21:40.297Z,1.88
2023-04-20T02:23:43.864Z,1.75
2023-04-20T02:25:47.494Z,2.20
2023-04-20T02:27:51.235Z,1.63
2023-04-20T02:29:56.449Z,1.48
2023-04-20T02:31:59.887Z,1.58
2023-04-20T02:34:06.249Z,1.60
2023-04-20T02:36:10.412Z,1.67
2023-04-20T02:38:16.859Z,1.80
2023-04-20T02:40:20.371Z,2.10
2023-04-20T02:42:24.072Z,1.60
2023-04-20T02:44:28.147Z,1.58
2023-04-20T02:46:33.152Z,1.63
2023-04-20T02:48:37.041Z,1.90
2023-04-20T02:50:40.724Z,2.10
2023-04-20T02:52:52.982Z,2.38
2023-04-20T02:54:56.684Z,2.00
2023-04-20T02:57:01.013Z,1.80
2023-04-20T02:59:06.016Z,2.53
2023-04-20T03:01:36.985Z,1.80
2023-04-20T03:03:47.785Z,1.75
2023-04-20T03:05:51.735Z,2.03
2023-04-20T03:07:55.740Z,2.10
2023-04-20T03:10:00.749Z,1.70
2023-04-20T03:12:31.853Z,2.00
2023-04-20T03:14:54.201Z,1.77
2023-04-20T03:17:04.669Z,2.10
2023-04-20T03:19:08.695Z,1.65
2023-04-20T03:21:12.654Z,2.05
2023-04-20T03:23:16.154Z,1.70
2023-04-20T03:25:20.092Z,1.88
2023-04-20T03:27:34.120Z,1.75
2023-04-20T03:29:44.454Z,1.48
2023-04-20T03:31:48.370Z,1.95
2023-04-20T03:33:53.573Z,2.28
2023-04-20T03:35:56.991Z,1.60
2023-04-20T03:38:00.693Z,2.63
2023-04-20T03:40:04.448Z,2.10
2023-04-20T03:42:08.270Z,1.52
2023-04-20T03:44:11.716Z,1.80
2023-04-20T03:46:15.270Z,1.75
2023-04-20T03:48:18.975Z,2.08
2023-04-20T03:50:26.512Z,1.80
2023-04-20T03:52:30.056Z,1.90
2023-04-20T03:56:38.590Z,2.10
2023-04-20T03:58:42.097Z,1.50
2023-04-20T04:00:50.083Z,2.03
2023-04-20T04:02:54.412Z,2.58
2023-04-20T04:05:03.659Z,1.98
2023-04-20T04:07:09.084Z,1.52
2023-04-20T04:09:17.002Z,1.17
2023-04-20T04:11:22.375Z,1.83
2023-04-20T04:13:26.211Z,1.58
2023-04-20T04:15:30.044Z,2.03
2023-04-20T04:17:39.050Z,1.48
2023-04-20T04:19:43.758Z,2.00
2023-04-20T04:21:47.402Z,2.03
2023-04-20T04:23:53.554Z,1.70
2023-04-20T04:26:07.628Z,1.67
2023-04-20T04:28:18.091Z,1.60
2023-04-20T04:30:31.602Z,1.88
2023-04-20T04:32:36.723Z,1.77
2023-04-20T04:34:44.691Z,1.50
2023-04-20T04:36:49.317Z,1.48
2023-04-20T04:38:58.781Z,1.90
2023-04-20T04:41:04.032Z,1.92
2023-04-20T04:43:10.340Z,1.95
2023-04-20T04:45:18.547Z,1.50
2023-04-20T04:47:23.044Z,1.60
2023-04-20T04:49:29.402Z,1.92
2023-04-20T04:51:33.522Z,2.20
2023-04-20T04:53:37.145Z,1.70
2023-04-20T04:55:42.128Z,2.33
2023-04-20T04:57:45.645Z,1.65
2023-04-20T04:59:49.164Z,1.50
2023-04-20T05:01:52.784Z,1.60
2023-04-20T05:03:56.292Z,1.92
2023-04-20T05:05:59.848Z,1.58
2023-04-20T05:08:03.515Z,1.50
2023-04-20T05:10:08.655Z,2.65
2023-04-20T05:12:13.674Z,2.25
2023-04-20T05:14:17.065Z,2.05
2023-04-20T05:16:20.905Z,2.35
2023-04-20T05:18:25.185Z,1.80
2023-04-20T05:20:29.237Z,2.50
2023-04-20T05:22:33.443Z,3.40
2023-04-20T05:24:37.338Z,2.15
2023-04-20T05:26:41.036Z,2.58
2023-04-20T05:28:46.759Z,2.30
2023-04-20T05:30:51.661Z,2.63
2023-04-20T05:32:56.626Z,2.15
2023-04-20T05:35:01.819Z,2.10
2023-04-20T05:39:11.808Z,3.17
2023-04-20T05:43:19.648Z,2.42
2023-04-20T05:45:26.775Z,2.80
2023-04-20T05:47:31.774Z,2.22
2023-04-20T05:49:36.698Z,2.60
2023-04-20T05:51:40.991Z,2.63
2023-04-20T05:53:46.278Z,2.50
2023-04-20T05:55:55.301Z,2.53
2023-04-20T05:57:59.073Z,2.47
2023-04-20T06:00:04.210Z,2.53
2023-04-20T06:02:18.972Z,2.90
2023-04-20T06:04:23.597Z,2.30
2023-04-20T06:06:28.483Z,2.38
2023-04-20T06:08:32.705Z,3.13
2023-04-20T06:10:36.523Z,3.15
2023-04-20T06:12:40.919Z,3.00
2023-04-20T06:14:44.757Z,3.67
2023-04-20T06:16:48.850Z,3.72
2023-04-20T06:18:54.306Z,2.70
2023-04-20T06:20:58.689Z,3.55
2023-04-20T06:23:03.055Z,3.70
2023-04-20T06:25:08.772Z,3.25
2023-04-20T06:27:13.478Z,3.13
2023-04-20T06:29:17.650Z,3.45
2023-04-20T06:31:23.126Z,3.20
2023-04-20T06:33:27.971Z,3.67
2023-04-20T06:35:34.618Z,3.63
2023-04-20T06:37:38.982Z,3.53
2023-04-20T06:39:50.594Z,3.95
2023-04-20T06:41:59.252Z,3.75
2023-04-20T06:44:07.145Z,4.60
2023-04-20T06:46:14.472Z,3.55
2023-04-20T06:48:31.472Z,3.65
2023-04-20T06:50:39.122Z,3.45
2023-04-20T06:52:43.631Z,3.63
2023-04-20T06:54:47.852Z,4.53
2023-04-20T06:56:51.916Z,4.15
2023-04-20T06:58:55.682Z,4.18
2023-04-20T07:00:59.350Z,3.67
2023-04-20T07:03:04.111Z,3.55
2023-04-20T07:05:08.141Z,3.47
2023-04-20T07:07:13.523Z,4.43
2023-04-20T07:09:19.753Z,3.40
2023-04-20T07:11:25.773Z,3.92
2023-04-20T07:13:33.836Z,3.33
2023-04-20T07:15:38.914Z,3.55
2023-04-20T07:17:43.048Z,4.50
2023-04-20T07:19:47.025Z,3.72
2023-04-20T07:21:51.226Z,4.07
2023-04-20T07:23:58.702Z,4.13
2023-04-20T07:26:02.692Z,3.45
2023-04-20T07:28:06.499Z,3.65
2023-04-20T07:30:11.598Z,4.10
2023-04-20T07:32:16.016Z,4.13
2023-04-20T07:34:20.113Z,4.32
2023-04-20T07:36:24.018Z,4.00
2023-04-20T07:38:27.785Z,3.25
2023-04-20T07:40:33.005Z,3.33
2023-04-20T07:42:37.958Z,3.70
2023-04-20T07:44:41.636Z,3.47
2023-04-20T07:46:45.536Z,3.00
2023-04-20T07:48:49.569Z,4.93
2023-04-20T07:50:53.376Z,3.42
2023-04-20T07:52:57.186Z,3.28
2023-04-20T07:55:01.121Z,3.72
2023-04-20T07:57:06.868Z,3.72
2023-04-20T07:59:10.829Z,3.78
2023-04-20T08:01:14.634Z,3.67
2023-04-20T08:03:18.786Z,3.45
2023-04-20T08:05:24.691Z,3.22
2023-04-20T08:07:28.701Z,3.20
2023-04-20T08:09:32.490Z,2.78
2023-04-20T08:11:36.771Z,3.17
2023-04-20T08:13:42.767Z,3.30
2023-04-20T08:15:46.859Z,3.00
2023-04-20T08:17:51.114Z,3.67
2023-04-20T08:19:55.508Z,3.42
2023-04-20T08:22:00.710Z,3.85
2023-04-20T08:24:06.862Z,3.47
2023-04-20T08:26:11.120Z,3.72
2023-04-20T08:28:24.286Z,6.93
2023-04-20T08:30:41.590Z,4.30
2023-04-20T08:32:45.318Z,4.82
2023-04-20T08:34:49.388Z,4.10
2023-04-20T08:36:53.299Z,3.70
2023-04-20T08:38:59.977Z,4.30
2023-04-20T08:41:03.928Z,2.88
2023-04-20T08:43:07.709Z,3.17
2023-04-20T08:45:11.666Z,4.18
2023-04-20T08:47:16.832Z,3.85
2023-04-20T08:49:21.864Z,3.17
2023-04-20T08:53:29.378Z,3.78
2023-04-20T08:55:33.440Z,4.18
2023-04-20T08:57:37.922Z,4.13
2023-04-20T08:59:42.924Z,4.05
2023-04-20T09:01:47.194Z,4.10
2023-04-20T09:03:52.726Z,4.15
2023-04-20T09:05:56.520Z,4.22
2023-04-20T09:08:01.438Z,4.65
2023-04-20T09:10:05.382Z,3.58
2023-04-20T09:12:10.526Z,3.83
2023-04-20T09:14:18.636Z,3.60
2023-04-20T09:16:22.549Z,4.25
2023-04-20T09:18:26.269Z,4.65
2023-04-20T09:20:32.839Z,4.40
2023-04-20T09:22:38.158Z,5.15
2023-04-20T09:24:42.883Z,5.18
2023-04-20T09:26:47.339Z,4.53
2023-04-20T09:28:51.085Z,5.15
2023-04-20T09:30:54.747Z,4.82
2023-04-20T09:33:04.949Z,3.70
2023-04-20T09:35:09.464Z,3.97
2023-04-20T09:37:17.019Z,3.97
2023-04-20T09:39:22.959Z,3.83
2023-04-20T09:41:26.392Z,4.28
2023-04-20T09:43:31.732Z,3.47
2023-04-20T09:45:35.766Z,4.15
2023-04-20T09:47:42.015Z,3.65
2023-04-20T09:49:47.162Z,4.43
2023-04-20T09:51:51.114Z,4.35
2023-04-20T09:53:57.204Z,3.40
2023-04-20T09:56:02.763Z,3.35
2023-04-20T09:58:06.875Z,3.70
2023-04-20T10:00:12.805Z,3.42
2023-04-20T10:02:16.646Z,3.42
2023-04-20T10:04:20.508Z,4.50
2023-04-20T10:06:25.500Z,4.65
2023-04-20T10:08:29.164Z,4.55
2023-04-20T10:10:45.449Z,4.80
2023-04-20T10:12:50.290Z,4.30
2023-04-20T10:14:57.314Z,4.18
2023-04-20T10:17:02.481Z,3.55
2023-04-20T10:19:08.956Z,3.70
2023-04-20T10:21:13.844Z,4.22
2023-04-20T10:23:19.739Z,4.35
2023-04-20T10:25:26.954Z,4.00
2023-04-20T10:27:32.663Z,4.70
2023-04-20T10:29:36.713Z,4.75
2023-04-20T10:31:41.910Z,4.55
2023-04-20T10:33:53.014Z,4.53
2023-04-20T10:38:02.850Z,4.50
2023-04-20T10:40:08.139Z,4.50
2023-04-20T10:42:11.819Z,4.80
2023-04-20T10:44:17.800Z,4.10
2023-04-20T10:46:23.326Z,5.20
2023-04-20T10:48:27.139Z,4.63
2023-04-20T10:50:30.795Z,4.60
2023-04-20T10:52:36.267Z,4.72
2023-04-20T10:54:40.477Z,4.28
2023-04-20T10:56:45.878Z,4.78
2023-04-20T10:58:49.580Z,4.38
2023-04-20T11:01:02.472Z,5.63
2023-04-20T11:03:06.207Z,4.65
2023-04-20T11:05:13.761Z,5.43
2023-04-20T11:07:17.509Z,4.63
2023-04-20T11:09:22.949Z,4.75
2023-04-20T11:11:27.823Z,4.88
2023-04-20T11:13:33.151Z,4.55
2023-04-20T11:15:37.142Z,4.15
2023-04-20T11:17:42.257Z,3.97
2023-04-20T11:21:51.086Z,3.70
2023-04-20T11:23:54.927Z,3.75
2023-04-20T11:25:59.264Z,4.40
2023-04-20T11:28:09.073Z,4.25
2023-04-20T11:30:13.321Z,4.35
2023-04-20T11:32:20.364Z,4.22
2023-04-20T11:34:26.016Z,4.07
2023-04-20T11:36:31.558Z,4.25
2023-04-20T11:38:36.598Z,4.20
2023-04-20T11:40:40.310Z,3.92
2023-04-20T11:42:44.086Z,4.18
2023-04-20T11:44:47.962Z,3.90
2023-04-20T11:46:53.578Z,4.68
2023-04-20T11:49:00.403Z,3.45
2023-04-20T11:51:05.958Z,4.82
2023-04-20T11:53:10.528Z,3.40
2023-04-20T11:55:14.133Z,4.40
2023-04-20T11:57:17.915Z,3.97
2023-04-20T11:59:21.996Z,3.03
2023-04-20T12:01:25.873Z,4.40
2023-04-20T12:03:29.740Z,4.10
2023-04-20T12:05:33.786Z,4.15
2023-04-20T12:07:38.918Z,4.03
2023-04-20T12:09:42.538Z,4.43
2023-04-20T12:11:46.103Z,4.05
2023-04-20T12:13:49.962Z,4.18
2023-04-20T12:15:53.834Z,5.28
2023-04-20T12:17:57.466Z,4.38
2023-04-20T12:20:01.324Z,4.15
2023-04-20T12:22:05.232Z,3.92
2023-04-20T12:24:10.590Z,3.92
2023-04-20T12:26:14.516Z,3.25
2023-04-20T12:28:18.215Z,3.83
2023-04-20T12:30:22.695Z,3.28
2023-04-20T12:32:27.147Z,3.63
2023-04-20T12:34:31.262Z,2.97
2023-04-20T12:36:36.752Z,3.45
2023-04-20T12:38:40.890Z,3.95
2023-04-20T12:40:46.726Z,3.90
2023-04-20T12:42:51.038Z,3.70
2023-04-20T12:44:56.424Z,3.65
2023-04-20T12:47:00.333Z,3.30
2023-04-20T12:49:04.758Z,3.58
2023-04-20T12:51:09.364Z,3.53
2023-04-20T12:53:13.690Z,2.97
2023-04-20T12:55:17.440Z,4.32
2023-04-20T12:57:22.587Z,3.38
2023-04-20T12:59:26.329Z,4.45
2023-04-20T13:01:29.940Z,4.10
2023-04-20T13:03:33.912Z,3.60
2023-04-20T13:05:37.916Z,3.30
2023-04-20T13:07:41.518Z,3.65
2023-04-20T13:09:46.151Z,3.28
2023-04-20T13:11:49.873Z,3.25
2023-04-20T13:13:56.696Z,3.80
2023-04-20T13:16:00.319Z,3.80
2023-04-20T13:18:04.405Z,4.15
2023-04-20T13:20:09.672Z,3.88
2023-04-20T13:22:16.179Z,3.60
2023-04-20T13:24:21.860Z,3.78
2023-04-20T13:26:25.754Z,5.00
2023-04-20T13:28:29.512Z,3.88
2023-04-20T13:30:34.851Z,3.90
2023-04-20T13:32:39.135Z,3.90
2023-04-20T13:34:42.936Z,3.42
2023-04-20T13:36:48.533Z,3.83
2023-04-20T13:38:53.784Z,3.53
2023-04-20T13:40:57.412Z,3.55
2023-04-20T13:43:01.165Z,3.30
2023-04-20T13:45:05.982Z,3.30
2023-04-20T13:47:11.582Z,4.50
2023-04-20T13:49:17.341Z,3.75
2023-04-20T13:51:23.100Z,2.97
2023-04-20T13:53:27.921Z,3.47
2023-04-20T13:55:31.963Z,3.20
2023-04-20T13:57:36.634Z,3.60
2023-04-20T13:59:40.667Z,3.55
2023-04-20T14:01:44.652Z,3.70
2023-04-20T14:03:51.982Z,3.53
2023-04-20T14:05:55.794Z,4.55
2023-04-20T14:08:01.779Z,4.28
2023-04-20T14:10:06.613Z,4.40
2023-04-20T14:12:10.499Z,4.53
2023-04-20T14:14:14.483Z,4.15
2023-04-20T14:16:18.514Z,4.47
2023-04-20T14:18:22.466Z,3.58
2023-04-20T14:20:28.081Z,4.88
2023-04-20T14:22:36.233Z,4.30
2023-04-20T14:24:40.923Z,4.25
2023-04-20T14:26:44.623Z,4.18
2023-04-20T14:28:48.358Z,4.22
2023-04-20T14:30:52.507Z,4.55
2023-04-20T14:32:57.479Z,3.85
2023-04-20T14:35:02.301Z,3.85
2023-04-20T14:37:09.934Z,4.90
2023-04-20T14:39:13.686Z,5.05
2023-04-20T14:41:18.277Z,4.13
2023-04-20T14:43:22.600Z,4.45
2023-04-20T14:45:26.536Z,3.22
2023-04-20T14:47:30.373Z,3.95
2023-04-20T14:49:34.248Z,3.80
2023-04-20T14:51:38.386Z,3.92
2023-04-20T14:53:43.821Z,3.45
2023-04-20T14:55:47.895Z,3.67
2023-04-20T14:57:52.139Z,3.85
2023-04-20T14:59:55.810Z,3.08
2023-04-20T15:02:03.024Z,3.47
2023-04-20T15:04:07.656Z,3.65
2023-04-20T15:06:11.675Z,2.70
2023-04-20T15:08:15.433Z,3.00
2023-04-20T15:10:21.082Z,3.53
2023-04-20T15:12:24.838Z,3.25
2023-04-20T15:14:28.581Z,3.05
2023-04-20T15:16:32.233Z,2.30
2023-04-20T15:18:36.121Z,2.45
2023-04-20T15:20:39.833Z,2.95
2023-04-20T15:22:43.708Z,2.20
2023-04-20T15:24:47.726Z,2.30
2023-04-20T15:26:52.805Z,2.30
2023-04-20T15:28:57.797Z,2.50
2023-04-20T15:33:05.546Z,2.47
2023-04-20T15:35:09.931Z,2.85
2023-04-20T15:37:14.338Z,2.65
2023-04-20T15:39:18.369Z,2.92
2023-04-20T15:41:22.729Z,2.72
2023-04-20T15:43:27.955Z,2.70
2023-04-20T15:45:32.690Z,2.30
2023-04-20T15:47:36.484Z,3.03
2023-04-20T15:49:40.902Z,2.75
2023-04-20T15:51:44.615Z,2.72
2023-04-20T15:53:50.946Z,2.28
2023-04-20T15:55:54.699Z,2.55
2023-04-20T15:58:00.576Z,2.40
2023-04-20T16:00:06.626Z,1.80
2023-04-20T16:02:13.948Z,2.20
2023-04-20T16:04:18.291Z,2.25
2023-04-20T16:06:22.825Z,2.45
2023-04-20T16:08:26.514Z,2.25
2023-04-20T16:10:30.328Z,2.25
2023-04-20T16:12:34.523Z,1.90
2023-04-20T16:14:38.432Z,2.53
2023-04-20T16:16:46.339Z,1.98
2023-04-20T16:18:54.829Z,2.10
2023-04-20T16:20:59.333Z,2.85
2023-04-20T16:23:03.615Z,2.58
2023-04-20T16:25:09.773Z,2.33
2023-04-20T16:27:13.473Z,3.00
2023-04-20T16:29:17.590Z,3.03
2023-04-20T16:31:22.055Z,2.50
2023-04-20T16:33:27.795Z,2.95
2023-04-20T16:35:31.992Z,2.08
2023-04-20T16:37:36.524Z,2.60
2023-04-20T16:39:40.302Z,2.88
2023-04-20T16:41:44.710Z,2.13
2023-04-20T16:43:48.611Z,2.17
2023-04-20T16:45:52.595Z,2.17
2023-04-20T16:47:56.513Z,2.75
2023-04-20T16:50:01.861Z,2.53
2023-04-20T16:52:05.849Z,2.88
2023-04-20T16:54:10.726Z,2.50
2023-04-20T16:58:18.697Z,2.30
2023-04-20T17:00:24.113Z,2.33
2023-04-20T17:02:33.109Z,2.33
2023-04-20T17:04:37.256Z,2.65
2023-04-20T17:06:42.527Z,2.40
2023-04-20T17:08:47.480Z,2.00
2023-04-20T17:12:58.263Z,2.10
2023-04-20T17:15:02.977Z,2.55
2023-04-20T17:17:06.811Z,2.47
2023-04-20T17:19:11.349Z,2.60
2023-04-20T17:21:15.514Z,2.15
2023-04-20T17:23:21.308Z,2.55
2023-04-20T17:25:26.955Z,2.17
2023-04-20T17:27:31.248Z,2.10
2023-04-20T17:29:38.712Z,2.22
2023-04-20T17:31:43.808Z,2.15
2023-04-20T17:33:48.214Z,2.03
2023-04-20T17:35:52.147Z,2.20
2023-04-20T17:37:56.037Z,2.08
2023-04-20T17:40:01.823Z,2.42
2023-04-20T17:42:05.960Z,1.90
2023-04-20T17:44:12.126Z,2.35
2023-04-20T17:46:16.157Z,2.03
2023-04-20T17:48:20.011Z,2.22
2023-04-20T17:50:24.582Z,1.88
2023-04-20T17:52:28.254Z,1.75
2023-04-20T17:54:34.136Z,1.70
2023-04-20T17:56:40.357Z,1.90
2023-04-20T17:58:44.161Z,2.40
2023-04-20T18:00:48.449Z,1.92
2023-04-20T18:02:53.148Z,2.13
2023-04-20T18:04:59.866Z,1.77
2023-04-20T18:07:07.842Z,1.95
2023-04-20T18:09:14.572Z,1.95
2023-04-20T18:11:18.937Z,1.70
2023-04-20T18:13:24.672Z,1.65
2023-04-20T18:15:30.810Z,1.65
2023-04-20T18:17:34.959Z,2.10
2023-04-20T18:19:40.951Z,1.90
2023-04-20T18:21:44.771Z,1.60
2023-04-20T18:23:48.910Z,1.80
2023-04-20T18:25:53.713Z,2.25
2023-04-20T18:27:57.815Z,1.50
2023-04-20T18:30:03.399Z,2.17
2023-04-20T18:32:07.819Z,2.17
2023-04-20T18:34:13.171Z,2.00
2023-04-20T18:36:18.108Z,1.88
2023-04-20T18:38:22.416Z,2.03
2023-04-20T18:40:26.514Z,2.50
2023-04-20T18:42:30.772Z,1.83
2023-04-20T18:44:34.773Z,2.00
2023-04-20T18:46:42.729Z,2.13
2023-04-20T18:48:47.157Z,1.60
2023-04-20T18:50:51.534Z,1.98
2023-04-20T18:52:55.685Z,1.90
2023-04-20T18:55:00.176Z,1.80
2023-04-20T18:57:04.780Z,2.75
2023-04-20T18:59:11.274Z,2.20
2023-04-20T19:01:15.417Z,1.92
2023-04-20T19:03:21.654Z,2.00
2023-04-20T19:05:26.394Z,2.88
2023-04-20T19:07:31.009Z,1.92
2023-04-20T19:09:35.269Z,2.40
2023-04-20T19:11:39.516Z,1.95
2023-04-20T19:13:45.493Z,2.50
2023-04-20T19:15:50.930Z,2.00
2023-04-20T19:17:56.642Z,2.28
2023-04-20T19:20:02.657Z,2.67
2023-04-20T19:22:07.160Z,1.80
2023-04-20T19:24:11.580Z,2.28
2023-04-20T19:26:16.389Z,2.20
2023-04-20T19:28:22.169Z,1.90
2023-04-20T19:30:28.291Z,1.80
2023-04-20T19:32:32.833Z,1.95
2023-04-20T19:34:37.834Z,1.83
2023-04-20T19:36:43.918Z,1.42
2023-04-20T19:38:49.861Z,1.25
2023-04-20T19:40:54.582Z,1.80
2023-04-20T19:42:59.463Z,1.73
2023-04-20T19:45:03.660Z,2.60
2023-04-20T19:47:08.667Z,1.95
2023-04-20T19:49:15.080Z,2.25
2023-04-20T19:51:22.679Z,2.08
2023-04-20T19:53:29.582Z,2.17
2023-04-20T19:55:35.359Z,2.38
2023-04-20T19:57:41.292Z,2.50
2023-04-20T19:59:46.920Z,2.17
2023-04-20T20:01:53.853Z,2.10
2023-04-20T20:03:59.581Z,2.05
2023-04-20T20:06:05.812Z,1.92
2023-04-20T20:08:11.570Z,1.80
2023-04-20T20:10:18.312Z,2.22
2023-04-20T20:12:23.917Z,2.00
2023-04-20T20:16:36.990Z,1.95
2023-04-20T20:18:42.133Z,2.20
2023-04-20T20:20:47.916Z,2.25
2023-04-20T20:22:53.458Z,1.75
2023-04-20T20:24:57.591Z,1.60
2023-04-20T20:27:04.745Z,1.90
2023-04-20T20:29:09.884Z,2.60
2023-04-20T20:31:13.998Z,1.70
2023-04-20T20:33:19.694Z,1.50
2023-04-20T20:35:24.520Z,1.77
2023-04-20T20:37:35.259Z,1.50
2023-04-20T20:39:40.134Z,1.85
2023-04-20T20:41:45.185Z,1.80
2023-04-20T20:43:51.895Z,2.13
2023-04-20T20:45:58.772Z,2.25
2023-04-20T20:48:03.675Z,3.17
2023-04-20T20:50:09.108Z,1.77
2023-04-20T20:52:13.804Z,1.92
2023-04-20T20:54:18.917Z,1.75
2023-04-20T20:56:23.289Z,1.50
2023-04-20T20:58:27.537Z,1.77
2023-04-20T21:00:33.732Z,1.35
2023-04-20T21:02:39.410Z,1.50
2023-04-20T21:04:44.471Z,2.30
2023-04-20T21:06:49.351Z,1.70
2023-04-20T21:08:54.946Z,1.52
2023-04-20T21:10:59.762Z,1.30
2023-04-20T21:13:05.100Z,1.42
2023-04-20T21:15:12.935Z,1.75
2023-04-20T21:17:19.432Z,1.40
2023-04-20T21:19:23.671Z,1.17
2023-04-20T21:21:29.617Z,1.65
2023-04-20T21:23:33.258Z,1.75
2023-04-20T21:25:37.070Z,1.42
2023-04-20T21:27:41.918Z,2.08
2023-04-20T21:29:46.368Z,1.17
2023-04-20T21:31:52.293Z,1.25
2023-04-20T21:34:02.028Z,1.35
2023-04-20T21:36:07.041Z,1.30
2023-04-20T21:38:11.457Z,1.40
2023-04-20T21:40:15.915Z,1.48
2023-04-20T21:42:20.472Z,1.55
2023-04-20T21:44:26.976Z,1.55
2023-04-20T21:46:31.283Z,1.35
2023-04-20T21:48:35.864Z,1.25
2023-04-20T21:50:41.819Z,1.40
2023-04-20T21:52:48.756Z,1.55
2023-04-20T21:54:53.584Z,1.35
2023-04-20T21:56:58.704Z,1.05
2023-04-20T21:59:03.125Z,1.02
2023-04-20T22:01:07.871Z,1.65
2023-04-20T22:03:12.635Z,1.70
2023-04-20T22:05:17.415Z,1.80
2023-04-20T22:07:24.163Z,1.95
2023-04-20T22:09:28.998Z,2.10
2023-04-20T22:11:36.785Z,1.45
2023-04-20T22:13:41.332Z,1.70
2023-04-20T22:15:47.590Z,1.63
2023-04-20T22:17:52.225Z,1.73
2023-04-20T22:19:56.739Z,1.48
2023-04-20T22:22:00.829Z,1.75
2023-04-20T22:24:07.228Z,1.75
2023-04-20T22:26:11.525Z,1.90
2023-04-20T22:28:15.805Z,1.60
2023-04-20T22:30:20.550Z,1.42
2023-04-20T22:32:25.386Z,1.38
2023-04-20T22:36:35.484Z,2.08
2023-04-20T22:38:39.984Z,2.00
2023-04-20T22:40:46.341Z,2.10
2023-04-20T22:42:51.124Z,1.65
2023-04-20T22:44:55.484Z,2.08
2023-04-20T22:47:00.134Z,2.65
2023-04-20T22:49:04.503Z,1.85
2023-04-20T22:51:08.802Z,1.40
2023-04-20T22:53:14.244Z,1.73
2023-04-20T22:55:18.609Z,1.90
2023-04-20T22:57:24.596Z,1.50
2023-04-20T22:59:28.756Z,1.98
2023-04-20T23:01:33.104Z,1.33
2023-04-20T23:03:37.687Z,1.98
2023-04-20T23:05:44.709Z,1.77
2023-04-20T23:07:48.831Z,1.65
2023-04-20T23:09:54.143Z,1.85
2023-04-20T23:11:58.951Z,1.67
2023-04-20T23:14:05.008Z,1.95
2023-04-20T23:16:09.872Z,1.60
2023-04-20T23:18:14.414Z,1.70
2023-04-20T23:20:19.743Z,1.65
2023-04-20T23:22:24.112Z,3.00
2023-04-20T23:24:28.763Z,1.70
2023-04-20T23:26:33.344Z,2.15
2023-04-20T23:28:37.602Z,2.35
2023-04-20T23:30:43.600Z,2.22
2023-04-20T23:32:47.689Z,1.70
2023-04-20T23:34:52.051Z,2.10
2023-04-20T23:36:56.829Z,1.75
2023-04-20T23:39:01.127Z,1.98
2023-04-20T23:41:11.053Z,1.63
2023-04-20T23:43:15.468Z,1.85
2023-04-20T23:45:20.244Z,1.67
2023-04-20T23:47:26.187Z,1.77
2023-04-20T23:49:30.498Z,1.65
2023-04-20T23:51:35.105Z,2.15
2023-04-20T23:53:39.824Z,1.77
2023-04-20T23:55:44.423Z,2.08
2023-04-20T23:57:49.163Z,2.38
2023-04-20T23:59:53.389Z,1.85
